sensor_id;sensor_type;location;lat;lon;timestamp;P1;durP1;ratioP1;P2;durP2;ratioP2
13706;SDS011;6925;47.816;13.072;2022-07-05T00:13:59;2.03;;;0.68;;
13706;SDS011;6925;47.816;13.072;2022-07-05T00:16:26;0.68;;;0.60;;
13706;SDS011;6925;47.816;13.072;2022-07-05T00:18:54;1.27;;;0.47;;
13706;SDS011;6925;47.816;13.072;2022-07-05T00:21:21;1.58;;;0.52;;
13706;SDS011;6925;47.816;13.072;2022-07-05T00:23:49;2.15;;;0.68;;
13706;SDS011;6925;47.816;13.072;2022-07-05T00:26:18;1.10;;;0.60;;
13706;SDS011;6925;47.816;13.072;2022-07-05T00:28:50;1.08;;;0.40;;
13706;SDS011;6925;47.816;13.072;2022-07-05T00:31:20;1.35;;;0.60;;
13706;SDS011;6925;47.816;13.072;2022-07-05T00:37:13;0.80;;;0.57;;
13706;SDS011;6925;47.816;13.072;2022-07-05T00:39:40;0.70;;;0.57;;
13706;SDS011;6925;47.816;13.072;2022-07-05T00:42:08;1.85;;;0.65;;
13706;SDS011;6925;47.816;13.072;2022-07-05T00:44:37;1.15;;;0.60;;
13706;SDS011;6925;47.816;13.072;2022-07-05T00:47:09;0.98;;;0.50;;
13706;SDS011;6925;47.816;13.072;2022-07-05T01:33:38;1.35;;;0.60;;
13706;SDS011;6925;47.816;13.072;2022-07-05T01:36:06;0.40;;;0.40;;
13706;SDS011;6925;47.816;13.072;2022-07-05T01:38:33;2.47;;;0.80;;
13706;SDS011;6925;47.816;13.072;2022-07-05T01:41:01;0.85;;;0.47;;
13706;SDS011;6925;47.816;13.072;2022-07-05T01:43:50;1.52;;;0.40;;
13706;SDS011;6925;47.816;13.072;2022-07-05T01:46:18;1.95;;;0.60;;
13706;SDS011;6925;47.816;13.072;2022-07-05T01:48:56;0.90;;;0.55;;
13706;SDS011;6925;47.816;13.072;2022-07-05T03:12:55;1.33;;;0.57;;
13706;SDS011;6925;47.816;13.072;2022-07-05T03:15:22;0.73;;;0.50;;
13706;SDS011;6925;47.816;13.072;2022-07-05T03:21:45;1.13;;;0.60;;
13706;SDS011;6925;47.816;13.072;2022-07-05T03:24:21;0.50;;;0.50;;
13706;SDS011;6925;47.816;13.072;2022-07-05T03:26:52;0.50;;;0.50;;
13706;SDS011;6925;47.816;13.072;2022-07-05T03:29:44;1.38;;;0.70;;
13706;SDS011;6925;47.816;13.072;2022-07-05T03:32:12;1.23;;;0.70;;
13706;SDS011;6925;47.816;13.072;2022-07-05T04:42:45;1.70;;;0.57;;
13706;SDS011;6925;47.816;13.072;2022-07-05T04:45:15;0.60;;;0.50;;
13706;SDS011;6925;47.816;13.072;2022-07-05T04:47:43;0.85;;;0.55;;
13706;SDS011;6925;47.816;13.072;2022-07-05T04:50:10;0.63;;;0.63;;
13706;SDS011;6925;47.816;13.072;2022-07-05T04:52:51;0.70;;;0.70;;
13706;SDS011;6925;47.816;13.072;2022-07-05T04:56:28;1.50;;;0.55;;
13706;SDS011;6925;47.816;13.072;2022-07-05T05:17:05;0.60;;;0.55;;
13706;SDS011;6925;47.816;13.072;2022-07-05T05:19:33;0.95;;;0.63;;
13706;SDS011;6925;47.816;13.072;2022-07-05T05:22:00;1.35;;;0.80;;
13706;SDS011;6925;47.816;13.072;2022-07-05T05:24:27;0.65;;;0.60;;
13706;SDS011;6925;47.816;13.072;2022-07-05T05:26:59;2.08;;;0.55;;
13706;SDS011;6925;47.816;13.072;2022-07-05T05:29:27;0.90;;;0.70;;
13706;SDS011;6925;47.816;13.072;2022-07-05T05:31:55;1.75;;;1.33;;
13706;SDS011;6925;47.816;13.072;2022-07-05T05:53:52;0.77;;;0.60;;
13706;SDS011;6925;47.816;13.072;2022-07-05T05:56:19;1.10;;;0.63;;
13706;SDS011;6925;47.816;13.072;2022-07-05T05:58:49;1.15;;;0.68;;
13706;SDS011;6925;47.816;13.072;2022-07-05T06:20:30;1.15;;;0.65;;
13706;SDS011;6925;47.816;13.072;2022-07-05T06:22:59;0.93;;;0.80;;
13706;SDS011;6925;47.816;13.072;2022-07-05T06:25:27;1.45;;;0.80;;
13706;SDS011;6925;47.816;13.072;2022-07-05T06:27:56;1.20;;;0.68;;
13706;SDS011;6925;47.816;13.072;2022-07-05T06:30:25;2.60;;;0.70;;
13706;SDS011;6925;47.816;13.072;2022-07-05T06:38:24;0.73;;;0.73;;
13706;SDS011;6925;47.816;13.072;2022-07-05T06:40:51;0.85;;;0.82;;
13706;SDS011;6925;47.816;13.072;2022-07-05T06:43:22;2.53;;;0.85;;
13706;SDS011;6925;47.816;13.072;2022-07-05T06:45:49;1.38;;;0.80;;
13706;SDS011;6925;47.816;13.072;2022-07-05T06:48:16;1.00;;;0.93;;
13706;SDS011;6925;47.816;13.072;2022-07-05T06:50:44;1.60;;;0.73;;
13706;SDS011;6925;47.816;13.072;2022-07-05T06:53:11;0.73;;;0.73;;
13706;SDS011;6925;47.816;13.072;2022-07-05T07:04:01;1.73;;;0.85;;
13706;SDS011;6925;47.816;13.072;2022-07-05T07:06:30;0.88;;;0.82;;
13706;SDS011;6925;47.816;13.072;2022-07-05T08:03:49;0.70;;;0.60;;
13706;SDS011;6925;47.816;13.072;2022-07-05T08:06:21;0.68;;;0.63;;
13706;SDS011;6925;47.816;13.072;2022-07-05T08:08:58;0.80;;;0.80;;
13706;SDS011;6925;47.816;13.072;2022-07-05T08:52:54;1.48;;;0.60;;
13706;SDS011;6925;47.816;13.072;2022-07-05T08:55:24;0.70;;;0.70;;
13706;SDS011;6925;47.816;13.072;2022-07-05T08:57:53;0.60;;;0.57;;
13706;SDS011;6925;47.816;13.072;2022-07-05T09:00:33;0.80;;;0.80;;
13706;SDS011;6925;47.816;13.072;2022-07-05T09:03:03;0.93;;;0.60;;
13706;SDS011;6925;47.816;13.072;2022-07-05T09:05:57;0.80;;;0.70;;
13706;SDS011;6925;47.816;13.072;2022-07-05T09:12:33;1.10;;;0.82;;
13706;SDS011;6925;47.816;13.072;2022-07-05T09:15:02;2.60;;;0.95;;
13706;SDS011;6925;47.816;13.072;2022-07-05T09:17:38;1.05;;;0.90;;
13706;SDS011;6925;47.816;13.072;2022-07-05T09:20:09;1.20;;;1.10;;
13706;SDS011;6925;47.816;13.072;2022-07-05T09:22:41;1.52;;;0.90;;
13706;SDS011;6925;47.816;13.072;2022-07-05T09:25:13;1.23;;;0.98;;
13706;SDS011;6925;47.816;13.072;2022-07-05T09:27:49;1.48;;;1.10;;
13706;SDS011;6925;47.816;13.072;2022-07-05T09:30:31;1.40;;;0.90;;
13706;SDS011;6925;47.816;13.072;2022-07-05T09:33:03;1.75;;;1.00;;
13706;SDS011;6925;47.816;13.072;2022-07-05T09:35:32;0.90;;;0.90;;
13706;SDS011;6925;47.816;13.072;2022-07-05T09:38:00;1.55;;;1.00;;
13706;SDS011;6925;47.816;13.072;2022-07-05T09:40:29;1.27;;;0.98;;
13706;SDS011;6925;47.816;13.072;2022-07-05T09:45:56;0.80;;;0.80;;
13706;SDS011;6925;47.816;13.072;2022-07-05T09:48:24;1.50;;;0.82;;
13706;SDS011;6925;47.816;13.072;2022-07-05T09:50:52;1.20;;;1.10;;
13706;SDS011;6925;47.816;13.072;2022-07-05T09:53:43;1.85;;;1.55;;
13706;SDS011;6925;47.816;13.072;2022-07-05T09:56:13;1.30;;;1.20;;
13706;SDS011;6925;47.816;13.072;2022-07-05T09:58:44;1.30;;;1.20;;
13706;SDS011;6925;47.816;13.072;2022-07-05T10:01:24;1.20;;;1.10;;
13706;SDS011;6925;47.816;13.072;2022-07-05T10:03:52;1.15;;;1.10;;
13706;SDS011;6925;47.816;13.072;2022-07-05T10:06:21;1.42;;;1.33;;
13706;SDS011;6925;47.816;13.072;2022-07-05T10:08:49;1.73;;;1.25;;
13706;SDS011;6925;47.816;13.072;2022-07-05T10:11:17;2.10;;;1.45;;
13706;SDS011;6925;47.816;13.072;2022-07-05T10:13:47;1.65;;;1.50;;
13706;SDS011;6925;47.816;13.072;2022-07-05T10:16:16;1.88;;;1.20;;
13706;SDS011;6925;47.816;13.072;2022-07-05T10:18:46;1.63;;;1.40;;
13706;SDS011;6925;47.816;13.072;2022-07-05T10:21:17;1.40;;;1.30;;
13706;SDS011;6925;47.816;13.072;2022-07-05T10:23:45;1.27;;;1.20;;
13706;SDS011;6925;47.816;13.072;2022-07-05T10:26:14;1.42;;;1.33;;
13706;SDS011;6925;47.816;13.072;2022-07-05T10:28:44;1.30;;;1.20;;
13706;SDS011;6925;47.816;13.072;2022-07-05T10:31:18;1.42;;;1.33;;
13706;SDS011;6925;47.816;13.072;2022-07-05T10:33:46;1.30;;;1.20;;
13706;SDS011;6925;47.816;13.072;2022-07-05T10:36:14;1.33;;;1.20;;
13706;SDS011;6925;47.816;13.072;2022-07-05T10:38:42;1.13;;;1.05;;
13706;SDS011;6925;47.816;13.072;2022-07-05T10:41:11;3.50;;;1.52;;
13706;SDS011;6925;47.816;13.072;2022-07-05T10:43:46;1.92;;;1.33;;
13706;SDS011;6925;47.816;13.072;2022-07-05T10:46:32;2.33;;;1.40;;
13706;SDS011;6925;47.816;13.072;2022-07-05T10:49:10;2.08;;;1.38;;
13706;SDS011;6925;47.816;13.072;2022-07-05T10:51:39;2.13;;;1.30;;
13706;SDS011;6925;47.816;13.072;2022-07-05T10:54:07;1.38;;;1.27;;
13706;SDS011;6925;47.816;13.072;2022-07-05T10:56:36;1.40;;;1.30;;
13706;SDS011;6925;47.816;13.072;2022-07-05T10:59:11;2.28;;;1.50;;
13706;SDS011;6925;47.816;13.072;2022-07-05T11:01:40;2.58;;;1.30;;
13706;SDS011;6925;47.816;13.072;2022-07-05T11:04:11;2.63;;;1.23;;
13706;SDS011;6925;47.816;13.072;2022-07-05T11:06:47;1.35;;;1.25;;
13706;SDS011;6925;47.816;13.072;2022-07-05T11:09:16;2.63;;;1.20;;
13706;SDS011;6925;47.816;13.072;2022-07-05T11:11:45;1.20;;;1.10;;
13706;SDS011;6925;47.816;13.072;2022-07-05T11:20:16;1.27;;;1.17;;
13706;SDS011;6925;47.816;13.072;2022-07-05T11:23:02;1.30;;;1.20;;
13706;SDS011;6925;47.816;13.072;2022-07-05T11:25:31;1.42;;;1.33;;
13706;SDS011;6925;47.816;13.072;2022-07-05T11:30:54;1.48;;;1.33;;
13706;SDS011;6925;47.816;13.072;2022-07-05T11:33:28;1.40;;;1.30;;
13706;SDS011;6925;47.816;13.072;2022-07-05T11:36:00;2.65;;;1.60;;
13706;SDS011;6925;47.816;13.072;2022-07-05T11:38:29;1.70;;;1.20;;
13706;SDS011;6925;47.816;13.072;2022-07-05T11:41:10;2.67;;;1.40;;
13706;SDS011;6925;47.816;13.072;2022-07-05T11:43:38;1.40;;;1.30;;
13706;SDS011;6925;47.816;13.072;2022-07-05T11:46:10;1.80;;;1.70;;
13706;SDS011;6925;47.816;13.072;2022-07-05T11:48:41;1.33;;;1.23;;
13706;SDS011;6925;47.816;13.072;2022-07-05T11:51:15;1.38;;;1.20;;
13706;SDS011;6925;47.816;13.072;2022-07-05T11:53:43;1.40;;;1.30;;
13706;SDS011;6925;47.816;13.072;2022-07-05T12:06:41;1.95;;;1.60;;
13706;SDS011;6925;47.816;13.072;2022-07-05T12:09:09;1.90;;;1.30;;
13706;SDS011;6925;47.816;13.072;2022-07-05T12:11:36;1.30;;;1.20;;
13706;SDS011;6925;47.816;13.072;2022-07-05T12:14:22;1.02;;;1.02;;
13706;SDS011;6925;47.816;13.072;2022-07-05T12:16:50;1.40;;;1.30;;
13706;SDS011;6925;47.816;13.072;2022-07-05T12:19:37;1.98;;;1.55;;
13706;SDS011;6925;47.816;13.072;2022-07-05T12:22:07;2.03;;;1.40;;
13706;SDS011;6925;47.816;13.072;2022-07-05T12:24:35;2.72;;;1.50;;
13706;SDS011;6925;47.816;13.072;2022-07-05T12:27:03;1.50;;;1.40;;
13706;SDS011;6925;47.816;13.072;2022-07-05T12:29:31;1.50;;;1.40;;
13706;SDS011;6925;47.816;13.072;2022-07-05T12:31:58;1.42;;;1.33;;
13706;SDS011;6925;47.816;13.072;2022-07-05T12:34:27;1.52;;;1.33;;
13706;SDS011;6925;47.816;13.072;2022-07-05T12:36:55;1.88;;;1.58;;
13706;SDS011;6925;47.816;13.072;2022-07-05T12:39:25;3.75;;;1.60;;
13706;SDS011;6925;47.816;13.072;2022-07-05T12:41:53;1.40;;;1.30;;
13706;SDS011;6925;47.816;13.072;2022-07-05T12:44:24;1.35;;;1.30;;
13706;SDS011;6925;47.816;13.072;2022-07-05T12:47:02;3.10;;;1.38;;
13706;SDS011;6925;47.816;13.072;2022-07-05T12:49:30;3.40;;;1.83;;
13706;SDS011;6925;47.816;13.072;2022-07-05T12:52:12;1.65;;;1.55;;
13706;SDS011;6925;47.816;13.072;2022-07-05T12:54:41;3.30;;;1.70;;
13706;SDS011;6925;47.816;13.072;2022-07-05T12:57:27;2.20;;;1.70;;
13706;SDS011;6925;47.816;13.072;2022-07-05T13:00:15;2.85;;;1.95;;
13706;SDS011;6925;47.816;13.072;2022-07-05T13:02:45;2.38;;;2.08;;
13706;SDS011;6925;47.816;13.072;2022-07-05T13:05:27;1.60;;;1.50;;
13706;SDS011;6925;47.816;13.072;2022-07-05T13:08:28;2.08;;;1.88;;
13706;SDS011;6925;47.816;13.072;2022-07-05T13:11:09;1.90;;;1.80;;
13706;SDS011;6925;47.816;13.072;2022-07-05T13:13:39;1.55;;;1.45;;
13706;SDS011;6925;47.816;13.072;2022-07-05T13:16:07;1.50;;;1.40;;
13706;SDS011;6925;47.816;13.072;2022-07-05T13:18:43;2.95;;;1.30;;
13706;SDS011;6925;47.816;13.072;2022-07-05T13:21:27;1.92;;;1.52;;
13706;SDS011;6925;47.816;13.072;2022-07-05T13:23:57;1.95;;;1.50;;
13706;SDS011;6925;47.816;13.072;2022-07-05T13:26:27;1.95;;;1.60;;
13706;SDS011;6925;47.816;13.072;2022-07-05T13:29:02;1.73;;;1.63;;
13706;SDS011;6925;47.816;13.072;2022-07-05T13:31:47;2.40;;;2.05;;
13706;SDS011;6925;47.816;13.072;2022-07-05T13:37:58;2.00;;;1.90;;
13706;SDS011;6925;47.816;13.072;2022-07-05T15:01:20;2.15;;;1.55;;
13706;SDS011;6925;47.816;13.072;2022-07-05T15:03:48;1.95;;;1.73;;
13706;SDS011;6925;47.816;13.072;2022-07-05T15:06:15;2.45;;;1.50;;
13706;SDS011;6925;47.816;13.072;2022-07-05T15:08:45;1.67;;;1.58;;
13706;SDS011;6925;47.816;13.072;2022-07-05T15:11:12;1.35;;;1.25;;
13706;SDS011;6925;47.816;13.072;2022-07-05T15:13:40;1.60;;;1.50;;
13706;SDS011;6925;47.816;13.072;2022-07-05T15:18:53;2.60;;;1.52;;
13706;SDS011;6925;47.816;13.072;2022-07-05T15:21:20;1.98;;;1.83;;
13706;SDS011;6925;47.816;13.072;2022-07-05T15:23:48;1.67;;;1.58;;
13706;SDS011;6925;47.816;13.072;2022-07-05T15:26:33;1.75;;;1.60;;
13706;SDS011;6925;47.816;13.072;2022-07-05T15:29:02;2.58;;;1.60;;
13706;SDS011;6925;47.816;13.072;2022-07-05T15:31:32;2.55;;;1.52;;
13706;SDS011;6925;47.816;13.072;2022-07-05T15:34:01;3.20;;;1.65;;
13706;SDS011;6925;47.816;13.072;2022-07-05T15:36:32;1.92;;;1.65;;
13706;SDS011;6925;47.816;13.072;2022-07-05T15:42:22;1.80;;;1.70;;
13706;SDS011;6925;47.816;13.072;2022-07-05T15:44:51;1.63;;;1.52;;
13706;SDS011;6925;47.816;13.072;2022-07-05T15:47:23;1.77;;;1.60;;
13706;SDS011;6925;47.816;13.072;2022-07-05T15:50:02;2.40;;;1.70;;
13706;SDS011;6925;47.816;13.072;2022-07-05T15:52:30;1.80;;;1.50;;
13706;SDS011;6925;47.816;13.072;2022-07-05T15:55:04;2.72;;;1.65;;
13706;SDS011;6925;47.816;13.072;2022-07-05T15:57:33;1.77;;;1.40;;
13706;SDS011;6925;47.816;13.072;2022-07-05T16:00:04;1.67;;;1.58;;
13706;SDS011;6925;47.816;13.072;2022-07-05T16:02:40;3.20;;;1.60;;
13706;SDS011;6925;47.816;13.072;2022-07-05T16:05:07;1.65;;;1.55;;
13706;SDS011;6925;47.816;13.072;2022-07-05T16:07:36;2.58;;;1.52;;
13706;SDS011;6925;47.816;13.072;2022-07-05T16:10:18;1.58;;;1.40;;
13706;SDS011;6925;47.816;13.072;2022-07-05T16:12:59;1.40;;;1.30;;
13706;SDS011;6925;47.816;13.072;2022-07-05T16:15:28;1.75;;;1.40;;
13706;SDS011;6925;47.816;13.072;2022-07-05T16:18:16;2.30;;;1.35;;
13706;SDS011;6925;47.816;13.072;2022-07-05T16:20:58;1.67;;;1.58;;
13706;SDS011;6925;47.816;13.072;2022-07-05T16:27:01;1.50;;;1.40;;
13706;SDS011;6925;47.816;13.072;2022-07-05T16:29:29;2.45;;;1.45;;
13706;SDS011;6925;47.816;13.072;2022-07-05T16:31:58;2.22;;;1.60;;
13706;SDS011;6925;47.816;13.072;2022-07-05T16:37:52;1.95;;;1.77;;
13706;SDS011;6925;47.816;13.072;2022-07-05T16:45:31;1.85;;;1.40;;
13706;SDS011;6925;47.816;13.072;2022-07-05T16:48:11;2.03;;;1.52;;
13706;SDS011;6925;47.816;13.072;2022-07-05T16:54:15;2.00;;;1.27;;
13706;SDS011;6925;47.816;13.072;2022-07-05T16:56:44;1.30;;;1.20;;
13706;SDS011;6925;47.816;13.072;2022-07-05T17:01:58;3.72;;;1.50;;
13706;SDS011;6925;47.816;13.072;2022-07-05T17:04:40;2.40;;;1.60;;
13706;SDS011;6925;47.816;13.072;2022-07-05T17:10:38;1.38;;;1.23;;
13706;SDS011;6925;47.816;13.072;2022-07-05T17:13:06;1.85;;;1.40;;
13706;SDS011;6925;47.816;13.072;2022-07-05T17:15:33;1.63;;;1.50;;
13706;SDS011;6925;47.816;13.072;2022-07-05T17:18:03;1.77;;;1.60;;
13706;SDS011;6925;47.816;13.072;2022-07-05T17:20:39;1.50;;;1.40;;
13706;SDS011;6925;47.816;13.072;2022-07-05T17:23:20;1.90;;;1.70;;
13706;SDS011;6925;47.816;13.072;2022-07-05T17:25:56;1.70;;;1.60;;
13706;SDS011;6925;47.816;13.072;2022-07-05T17:28:27;1.33;;;1.23;;
13706;SDS011;6925;47.816;13.072;2022-07-05T17:30:59;1.50;;;1.40;;
13706;SDS011;6925;47.816;13.072;2022-07-05T17:52:44;1.45;;;1.35;;
13706;SDS011;6925;47.816;13.072;2022-07-05T17:55:14;1.80;;;1.70;;
13706;SDS011;6925;47.816;13.072;2022-07-05T17:57:44;1.45;;;1.35;;
13706;SDS011;6925;47.816;13.072;2022-07-05T18:00:15;2.65;;;1.60;;
13706;SDS011;6925;47.816;13.072;2022-07-05T18:03:09;1.67;;;1.58;;
13706;SDS011;6925;47.816;13.072;2022-07-05T19:58:49;2.08;;;1.80;;
13706;SDS011;6925;47.816;13.072;2022-07-05T20:01:26;2.22;;;2.03;;
13706;SDS011;6925;47.816;13.072;2022-07-05T20:04:00;1.90;;;1.80;;
13706;SDS011;6925;47.816;13.072;2022-07-05T20:27:53;2.33;;;1.98;;
13706;SDS011;6925;47.816;13.072;2022-07-05T20:30:25;2.00;;;1.90;;
13706;SDS011;6925;47.816;13.072;2022-07-05T20:33:06;3.67;;;2.10;;
13706;SDS011;6925;47.816;13.072;2022-07-05T20:35:47;1.70;;;1.60;;
13706;SDS011;6925;47.816;13.072;2022-07-05T20:38:23;1.75;;;1.65;;
13706;SDS011;6925;47.816;13.072;2022-07-05T21:00:40;1.85;;;1.75;;
13706;SDS011;6925;47.816;13.072;2022-07-05T21:03:08;2.67;;;2.17;;
13706;SDS011;6925;47.816;13.072;2022-07-05T21:05:47;2.53;;;1.80;;
13706;SDS011;6925;47.816;13.072;2022-07-05T21:08:15;2.03;;;1.92;;
13706;SDS011;6925;47.816;13.072;2022-07-05T21:10:54;2.15;;;1.88;;
13706;SDS011;6925;47.816;13.072;2022-07-05T21:14:05;2.13;;;1.70;;
13706;SDS011;6925;47.816;13.072;2022-07-05T21:16:52;2.17;;;1.98;;
13706;SDS011;6925;47.816;13.072;2022-07-05T21:19:32;2.05;;;1.95;;
13706;SDS011;6925;47.816;13.072;2022-07-05T21:22:22;2.00;;;1.90;;
13706;SDS011;6925;47.816;13.072;2022-07-05T21:24:59;2.42;;;1.92;;
13706;SDS011;6925;47.816;13.072;2022-07-05T21:27:32;3.75;;;2.00;;
13706;SDS011;6925;47.816;13.072;2022-07-05T21:30:15;1.80;;;1.70;;
13706;SDS011;6925;47.816;13.072;2022-07-05T21:32:55;2.22;;;2.03;;
13706;SDS011;6925;47.816;13.072;2022-07-05T21:35:28;3.67;;;2.00;;
13706;SDS011;6925;47.816;13.072;2022-07-05T21:37:57;4.10;;;1.83;;
13706;SDS011;6925;47.816;13.072;2022-07-05T21:40:38;2.10;;;2.00;;
13706;SDS011;6925;47.816;13.072;2022-07-05T21:43:34;3.08;;;2.22;;
13706;SDS011;6925;47.816;13.072;2022-07-05T21:56:15;2.20;;;2.00;;
13706;SDS011;6925;47.816;13.072;2022-07-05T22:03:10;2.10;;;1.88;;
13706;SDS011;6925;47.816;13.072;2022-07-05T22:09:40;3.55;;;2.10;;
13706;SDS011;6925;47.816;13.072;2022-07-05T22:15:59;2.40;;;2.20;;
13706;SDS011;6925;47.816;13.072;2022-07-05T22:37:18;1.55;;;1.45;;
13706;SDS011;6925;47.816;13.072;2022-07-05T22:39:49;2.42;;;1.90;;
13706;SDS011;6925;47.816;13.072;2022-07-05T22:42:23;1.15;;;1.15;;
13706;SDS011;6925;47.816;13.072;2022-07-05T22:44:51;1.55;;;1.45;;
13706;SDS011;6925;47.816;13.072;2022-07-05T22:47:19;1.80;;;1.70;;
13706;SDS011;6925;47.816;13.072;2022-07-05T22:49:49;1.60;;;1.30;;
13706;SDS011;6925;47.816;13.072;2022-07-05T22:52:19;3.28;;;1.67;;
13706;SDS011;6925;47.816;13.072;2022-07-05T22:54:50;1.30;;;1.20;;
13706;SDS011;6925;47.816;13.072;2022-07-05T22:57:18;1.85;;;1.52;;
13706;SDS011;6925;47.816;13.072;2022-07-05T22:59:45;1.50;;;1.40;;
13706;SDS011;6925;47.816;13.072;2022-07-05T23:02:12;2.65;;;1.70;;
13706;SDS011;6925;47.816;13.072;2022-07-05T23:04:41;1.15;;;1.15;;
13706;SDS011;6925;47.816;13.072;2022-07-05T23:07:08;2.80;;;1.27;;
13706;SDS011;6925;47.816;13.072;2022-07-05T23:09:36;1.38;;;1.27;;
13706;SDS011;6925;47.816;13.072;2022-07-05T23:12:03;1.50;;;1.40;;
13706;SDS011;6925;47.816;13.072;2022-07-05T23:14:31;2.05;;;1.85;;
13706;SDS011;6925;47.816;13.072;2022-07-05T23:16:58;1.40;;;1.30;;
13706;SDS011;6925;47.816;13.072;2022-07-05T23:19:25;1.95;;;1.35;;
13706;SDS011;6925;47.816;13.072;2022-07-05T23:21:56;1.75;;;1.60;;
13706;SDS011;6925;47.816;13.072;2022-07-05T23:24:24;3.45;;;1.42;;
13706;SDS011;6925;47.816;13.072;2022-07-05T23:27:08;1.60;;;1.50;;
13706;SDS011;6925;47.816;13.072;2022-07-05T23:29:36;1.70;;;1.55;;
13706;SDS011;6925;47.816;13.072;2022-07-05T23:32:03;2.10;;;1.60;;
13706;SDS011;6925;47.816;13.072;2022-07-05T23:34:40;2.00;;;1.80;;
